Darstellungsparameter: Aktuell verwendete Einstellungen:
Skalierung der Graphiken ... ?
xyx+y,   Skalierungsfaktor:      Skalierung: Modus: x, Faktor: 1
Darstellungszeitraum ... ?
Vom - - bis: - -   Zeitraum: 25.04.2009 - 27.04.2009
Min/Max/Avg-Anzeige ... ?
Zeige MMA aktuell
Zeige MMA Monat
Zeige MMA alles
Zeige --A aktuell
Zeige --A Monat
Zeige --A alles
Keine MMA-Anzeige
MMA:
Average (ber die Originaldaten)
MMA-Basis: 25.04.2009 - 27.04.2009
Quicknavigation für Darstellung... ?
Tage:      1T, 2T, 3T, 5T -1T -2T -3T -5T +1T +2T +3T +5T
Wochen: 1W, 2W, 3W -1W -2W -3W +1W +2W +3W
Monate: 1M, 3M, 6M -1M -3M -6M +1M +3M +6M
Jahre:    1J, 3J, 5J, 10J -1J -3J -5J -10J +1J +3J +5J +10J
Nutze für die Darstellung ... ?
Originaldaten oder Mittelwerte auf ...
Stundenbasis Tagesbasis Wochenbasis
Monatsbasis Jahresbasis      Datenbasis: Original-Daten
Darstellen als:
Statistik (Auto) Statistik J:M      Darstellung:
Zur Graphik,    zurück zur Übersicht aller Sensoren.
 
Tabellarische Datenbersicht: ?
 
Sensor: Nr:Datum:Temp:Abs-Feuchte:Windchill:Wind:
Aussen-T/F 1 25-04-2009 00:09:23 12.2 C 5.83 g/m*3 12.2 C 0 km/h
2 25-04-2009 00:21:23 11.9 C 6.04 g/m*3 11.9 C 0 km/h
3 25-04-2009 00:33:23 11.4 C 6.06 g/m*3 11.4 C 0 km/h
4 25-04-2009 00:45:23 11.3 C 6.12 g/m*3 11.3 C 0 km/h
5 25-04-2009 00:57:23 11 C 6.01 g/m*3 11 C 0 km/h
6 25-04-2009 01:09:23 10.9 C 6.07 g/m*3 10.9 C 0 km/h
7 25-04-2009 01:21:23 10.7 C 6.09 g/m*3 10.7 C 0 km/h
8 25-04-2009 01:33:23 10.4 C 6.07 g/m*3 10.4 C 0 km/h
9 25-04-2009 01:45:23 10.3 C 6.03 g/m*3 10.3 C 0 km/h
10 25-04-2009 01:57:23 10.1 C 6.05 g/m*3 10.1 C 0 km/h
11 25-04-2009 02:09:23 9.8 C 6.12 g/m*3 9.8 C 0 km/h
12 25-04-2009 02:21:23 9.6 C 6.05 g/m*3 9.6 C 0 km/h
13 25-04-2009 02:33:23 9.4 C 6.15 g/m*3 9.4 C 0 km/h
14 25-04-2009 02:45:24 9.1 C 6.12 g/m*3 9.1 C 0 km/h
15 25-04-2009 02:57:24 8.9 C 6.22 g/m*3 8.9 C 0 km/h
16 25-04-2009 03:09:24 8.7 C 6.14 g/m*3 8.7 C 0 km/h
17 25-04-2009 03:21:24 8.6 C 6.1 g/m*3 8.6 C 0 km/h
18 25-04-2009 03:33:24 8.4 C 6.11 g/m*3 8.4 C 0 km/h
19 25-04-2009 03:45:24 8.4 C 6.11 g/m*3 8.4 C 0 km/h
20 25-04-2009 03:57:24 8.1 C 6.07 g/m*3 8.1 C 0 km/h
21 25-04-2009 04:09:24 8.2 C 6.2 g/m*3 8.2 C 0 km/h
22 25-04-2009 04:21:24 8.1 C 6.57 g/m*3 8.1 C 0 km/h
23 25-04-2009 04:33:24 7.8 C 6.86 g/m*3 7.8 C 0 km/h
24 25-04-2009 04:45:24 7.3 C 6.79 g/m*3 7.3 C 0 km/h
25 25-04-2009 04:57:24 7.4 C 6.92 g/m*3 7.4 C 0 km/h
Sensor: Nr:Datum:Temp:Abs-Feuchte:Windchill:Wind:
Aussen-T/F 26 25-04-2009 05:09:24 7.3 C 6.87 g/m*3 7.3 C 0 km/h
27 25-04-2009 05:21:24 7.4 C 7 g/m*3 7.4 C 0 km/h
28 25-04-2009 05:33:24 7.2 C 6.91 g/m*3 7.2 C 0 km/h
29 25-04-2009 05:45:24 6.9 C 6.77 g/m*3 6.9 C 0 km/h
30 25-04-2009 05:57:24 6.9 C 6.77 g/m*3 6.9 C 0 km/h
31 25-04-2009 06:09:24 6.6 C 6.64 g/m*3 6.6 C 0 km/h
32 25-04-2009 06:21:24 6.5 C 6.6 g/m*3 6.5 C 0 km/h
33 25-04-2009 06:33:24 6.4 C 6.56 g/m*3 6.4 C 0 km/h
34 25-04-2009 06:45:24 6.4 C 6.56 g/m*3 6.4 C 0 km/h
35 25-04-2009 06:57:25 6.3 C 6.51 g/m*3 6.3 C 0 km/h
36 25-04-2009 07:09:25 6.3 C 6.51 g/m*3 6.3 C 0 km/h
37 25-04-2009 07:21:22 6.4 C 6.63 g/m*3 6.4 C 0 km/h
38 25-04-2009 07:33:22 6.5 C 6.67 g/m*3 6.5 C 0 km/h
39 25-04-2009 07:45:21 6.7 C 6.76 g/m*3 6.7 C 0 km/h
40 25-04-2009 07:57:21 7 C 6.82 g/m*3 7 C 0 km/h
41 25-04-2009 08:09:22 7.1 C 6.94 g/m*3 7.1 C 0 km/h
42 25-04-2009 08:21:21 7.5 C 7.12 g/m*3 7.5 C 0 km/h
43 25-04-2009 08:33:21 7.7 C 7.22 g/m*3 7.7 C 0 km/h
44 25-04-2009 08:45:21 8 C 7.28 g/m*3 8 C 0 km/h
45 25-04-2009 08:57:21 8.5 C 7.51 g/m*3 8.5 C 0 km/h
46 25-04-2009 09:09:20 8.9 C 7.62 g/m*3 8.9 C 0 km/h
47 25-04-2009 09:21:21 9.6 C 7.88 g/m*3 9.6 C 0 km/h
48 25-04-2009 09:33:20 10.4 C 8.1 g/m*3 10.4 C 0 km/h
49 25-04-2009 09:45:20 11.3 C 8.16 g/m*3 11.3 C 0 km/h
50 25-04-2009 09:57:20 12.1 C 8.26 g/m*3 12.1 C 0 km/h
Sensor: Nr:Datum:Temp:Abs-Feuchte:Windchill:Wind:
Aussen-T/F 51 25-04-2009 10:09:20 13 C 7.94 g/m*3 13 C 0 km/h
52 25-04-2009 10:21:20 14.1 C 6.67 g/m*3 14.1 C 0 km/h
53 25-04-2009 10:33:20 15.3 C 6.01 g/m*3 15.3 C 0 km/h
54 25-04-2009 10:45:20 15.8 C 6.06 g/m*3 15.8 C 0 km/h
55 25-04-2009 10:57:20 16.3 C 5.97 g/m*3 16.3 C 0 km/h
56 25-04-2009 11:09:20 16.9 C 6.04 g/m*3 16.9 C 0 km/h
57 25-04-2009 11:21:19 16.6 C 6.07 g/m*3 16.6 C 0 km/h
58 25-04-2009 11:33:19 16.6 C 6.22 g/m*3 16.6 C 0 km/h
59 25-04-2009 11:45:19 16.3 C 6.24 g/m*3 16.3 C 0 km/h
60 25-04-2009 11:57:19 17.3 C 6.33 g/m*3 17.3 C 0 km/h
61 25-04-2009 12:09:19 17.8 C 6.37 g/m*3 17.8 C 0 km/h
62 25-04-2009 12:21:18 17.6 C 6.45 g/m*3 17.6 C 0 km/h
63 25-04-2009 12:33:19 18.1 C 6.49 g/m*3 18.1 C 0 km/h
64 25-04-2009 12:45:19 18.3 C 6.41 g/m*3 18.3 C 0 km/h
65 25-04-2009 12:57:19 18.5 C 6.49 g/m*3 18.5 C 0 km/h
66 25-04-2009 13:09:18 18.8 C 6.44 g/m*3 18.8 C 0 km/h
67 25-04-2009 13:21:19 18.9 C 6.32 g/m*3 18.9 C 0 km/h
68 25-04-2009 13:33:18 19.5 C 6.38 g/m*3 19.5 C 0 km/h
69 25-04-2009 13:45:18 19.6 C 6.42 g/m*3 19.6 C 0 km/h
70 25-04-2009 13:57:18 19.9 C 6.53 g/m*3 19.9 C 0 km/h
71 25-04-2009 14:09:18 20.3 C 6.51 g/m*3 20.3 C 0 km/h
72 25-04-2009 14:21:18 20.3 C 6.51 g/m*3 20.3 C 0 km/h
73 25-04-2009 14:33:17 20.9 C 6.74 g/m*3 20.9 C 0 km/h
74 25-04-2009 14:45:17 20.7 C 6.48 g/m*3 20.7 C 0 km/h
75 25-04-2009 14:57:17 19.9 C 6.36 g/m*3 19.9 C 0 km/h
Sensor: Nr:Datum:Temp:Abs-Feuchte:Windchill:Wind:
Aussen-T/F 76 25-04-2009 15:09:17 19.5 C 6.55 g/m*3 19.5 C 0 km/h
77 25-04-2009 15:21:17 19.9 C 6.53 g/m*3 19.9 C 0 km/h
78 25-04-2009 15:33:17 20.8 C 6.34 g/m*3 20.8 C 0 km/h
79 25-04-2009 15:45:17 21.7 C 6.29 g/m*3 21.7 C 0 km/h
80 25-04-2009 15:57:17 21.8 C 6.14 g/m*3 21.8 C 0 km/h
81 25-04-2009 16:09:17 21.5 C 6.03 g/m*3 21.5 C 0 km/h
82 25-04-2009 16:21:16 21.6 C 6.07 g/m*3 21.6 C 0 km/h
83 25-04-2009 16:33:16 22 C 6.02 g/m*3 22 C 0 km/h
84 25-04-2009 16:45:16 21 C 6.23 g/m*3 21 C 0 km/h
85 25-04-2009 16:57:16 20.9 C 6.37 g/m*3 20.9 C 0 km/h
86 25-04-2009 17:09:16 20.9 C 6.56 g/m*3 20.9 C 0 km/h
87 25-04-2009 17:21:15 20.6 C 6.44 g/m*3 20.6 C 0 km/h
88 25-04-2009 17:33:16 21.4 C 6.37 g/m*3 21.4 C 0 km/h
89 25-04-2009 17:45:16 22.1 C 6.05 g/m*3 22.1 C 0 km/h
90 25-04-2009 17:57:16 22.7 C 6.26 g/m*3 22.7 C 0 km/h
91 25-04-2009 18:09:15 22.4 C 6.16 g/m*3 22.4 C 0 km/h
92 25-04-2009 18:21:16 22.7 C 6.26 g/m*3 22.7 C 0 km/h
93 25-04-2009 18:33:15 22.4 C 6.16 g/m*3 22.4 C 0 km/h
94 25-04-2009 18:45:15 22.9 C 6.34 g/m*3 22.9 C 0 km/h
95 25-04-2009 18:57:15 22.6 C 6.03 g/m*3 22.6 C 0 km/h
96 25-04-2009 19:09:15 23.2 C 6.24 g/m*3 23.2 C 0 km/h
97 25-04-2009 19:21:15 23.7 C 6.42 g/m*3 23.7 C 0 km/h
98 25-04-2009 19:33:15 23.2 C 6.24 g/m*3 23.2 C 0 km/h
99 25-04-2009 19:45:15 22.2 C 6.87 g/m*3 22.2 C 0 km/h
100 25-04-2009 19:57:15 21.2 C 7.04 g/m*3 21.2 C 0 km/h
Sensor: Nr:Datum:Temp:Abs-Feuchte:Windchill:Wind:
Aussen-T/F 101 25-04-2009 20:09:14 20.2 C 7.17 g/m*3 20.2 C 0 km/h
102 25-04-2009 20:21:14 19.3 C 7.3 g/m*3 19.3 C 0 km/h
103 25-04-2009 20:33:14 18.6 C 7.48 g/m*3 18.6 C 0 km/h
104 25-04-2009 20:45:14 18.2 C 7.46 g/m*3 18.2 C 0 km/h
105 25-04-2009 20:57:14 17.6 C 7.35 g/m*3 17.6 C 0 km/h
106 25-04-2009 21:09:14 17.2 C 7.32 g/m*3 17.2 C 0 km/h
107 25-04-2009 21:21:14 17 C 7.52 g/m*3 17 C 0 km/h
108 25-04-2009 21:33:13 17 C 7.52 g/m*3 17 C 0 km/h
109 25-04-2009 21:45:14 17 C 7.52 g/m*3 17 C 0 km/h
110 25-04-2009 21:57:14 17 C 7.52 g/m*3 17 C 0 km/h
111 25-04-2009 22:10:14 16.5 C 7.58 g/m*3 16.5 C 0 km/h
112 25-04-2009 22:22:14 16.4 C 7.54 g/m*3 16.4 C 0 km/h
113 25-04-2009 22:34:14 16.1 C 7.54 g/m*3 16.1 C 0 km/h
114 25-04-2009 22:46:14 16.1 C 7.54 g/m*3 16.1 C 0 km/h
115 25-04-2009 22:58:14 16 C 7.63 g/m*3 16 C 0 km/h
116 25-04-2009 23:10:14 15.6 C 7.98 g/m*3 15.6 C 0 km/h
117 25-04-2009 23:22:14 15.1 C 7.87 g/m*3 15.1 C 0 km/h
118 25-04-2009 23:34:14 14.9 C 7.9 g/m*3 14.9 C 0 km/h
119 25-04-2009 23:46:15 15 C 7.82 g/m*3 15 C 0 km/h
120 25-04-2009 23:58:15 14.9 C 8.03 g/m*3 14.9 C 0 km/h
121 26-04-2009 00:10:15 14.8 C 7.98 g/m*3 14.8 C 0 km/h
122 26-04-2009 00:22:15 14.9 C 8.16 g/m*3 14.9 C 0 km/h
123 26-04-2009 00:34:15 14.8 C 8.11 g/m*3 14.8 C 0 km/h
124 26-04-2009 00:46:15 14.8 C 8.23 g/m*3 14.8 C 0 km/h
125 26-04-2009 00:58:15 14.7 C 8.18 g/m*3 14.7 C 0 km/h
Sensor: Nr:Datum:Temp:Abs-Feuchte:Windchill:Wind:
Aussen-T/F 126 26-04-2009 01:10:15 14.2 C 8.06 g/m*3 14.2 C 0 km/h
127 26-04-2009 01:22:15 14 C 8.08 g/m*3 14 C 0 km/h
128 26-04-2009 01:34:15 14 C 8.2 g/m*3 14 C 0 km/h
129 26-04-2009 01:46:15 14.1 C 8.25 g/m*3 14.1 C 0 km/h
130 26-04-2009 01:58:15 14 C 8.08 g/m*3 14 C 0 km/h
131 26-04-2009 02:10:15 14.1 C 8.25 g/m*3 14.1 C 0 km/h
132 26-04-2009 02:22:15 14 C 8.2 g/m*3 14 C 0 km/h
133 26-04-2009 02:34:15 14 C 8.2 g/m*3 14 C 0 km/h
134 26-04-2009 02:46:15 14 C 8.08 g/m*3 14 C 0 km/h
135 26-04-2009 02:58:15 13.9 C 8.15 g/m*3 13.9 C 0 km/h
136 26-04-2009 03:10:15 13.8 C 8.22 g/m*3 13.8 C 0 km/h
137 26-04-2009 03:22:15 13.7 C 8.17 g/m*3 13.7 C 0 km/h
138 26-04-2009 03:34:15 13.6 C 8.12 g/m*3 13.6 C 0 km/h
139 26-04-2009 03:46:16 13.5 C 8.07 g/m*3 13.5 C 0 km/h
140 26-04-2009 03:58:16 13.4 C 8.14 g/m*3 13.4 C 0 km/h
141 26-04-2009 04:10:16 13.4 C 8.25 g/m*3 13.4 C 0 km/h
142 26-04-2009 04:22:16 13.3 C 8.2 g/m*3 13.3 C 0 km/h
143 26-04-2009 04:34:16 13.2 C 8.15 g/m*3 13.2 C 0 km/h
144 26-04-2009 04:46:16 13 C 8.05 g/m*3 13 C 0 km/h
145 26-04-2009 04:58:16 13.1 C 8.22 g/m*3 13.1 C 0 km/h
146 26-04-2009 05:10:16 13 C 8.17 g/m*3 13 C 0 km/h
147 26-04-2009 05:22:16 12.9 C 8.23 g/m*3 12.9 C 0 km/h
148 26-04-2009 05:34:16 12.8 C 8.29 g/m*3 12.8 C 0 km/h
149 26-04-2009 05:46:16 12.8 C 8.18 g/m*3 12.8 C 0 km/h
150 26-04-2009 05:58:16 12.6 C 8.19 g/m*3 12.6 C 0 km/h
Sensor: Nr:Datum:Temp:Abs-Feuchte:Windchill:Wind:
Aussen-T/F 151 26-04-2009 06:10:16 12.4 C 8.09 g/m*3 12.4 C 0 km/h
152 26-04-2009 06:22:16 12.2 C 8.2 g/m*3 12.2 C 0 km/h
153 26-04-2009 06:34:16 12 C 8.1 g/m*3 12 C 0 km/h
154 26-04-2009 06:46:15 11.9 C 8.26 g/m*3 11.9 C 0 km/h
155 26-04-2009 06:58:15 11.7 C 8.37 g/m*3 11.7 C 0 km/h
156 26-04-2009 07:10:14 11.8 C 8.42 g/m*3 11.8 C 0 km/h
157 26-04-2009 07:22:14 11.8 C 8.42 g/m*3 11.8 C 0 km/h
158 26-04-2009 07:34:14 11.8 C 8.42 g/m*3 11.8 C 0 km/h
159 26-04-2009 07:46:14 12.2 C 8.63 g/m*3 12.2 C 0 km/h
160 26-04-2009 07:58:14 12.3 C 8.58 g/m*3 12.3 C 0 km/h
161 26-04-2009 08:10:13 12.6 C 8.63 g/m*3 12.6 C 0 km/h
162 26-04-2009 08:22:14 12.9 C 8.68 g/m*3 12.9 C 0 km/h
163 26-04-2009 08:34:13 13.3 C 8.78 g/m*3 13.3 C 0 km/h
164 26-04-2009 08:46:14 13.6 C 8.71 g/m*3 13.6 C 0 km/h
165 26-04-2009 08:58:14 14.2 C 8.55 g/m*3 14.2 C 0 km/h
166 26-04-2009 09:10:13 14.9 C 8.54 g/m*3 14.9 C 0 km/h
167 26-04-2009 09:22:13 15.1 C 8.39 g/m*3 15.1 C 0 km/h
168 26-04-2009 09:34:13 15.9 C 8.53 g/m*3 15.9 C 0 km/h
169 26-04-2009 09:46:13 16.4 C 8.23 g/m*3 16.4 C 0 km/h
170 26-04-2009 09:58:13 16.8 C 8.29 g/m*3 16.8 C 0 km/h
171 26-04-2009 10:10:12 17.2 C 8.05 g/m*3 17.2 C 0 km/h
172 26-04-2009 10:22:13 17.2 C 8.05 g/m*3 17.2 C 0 km/h
173 26-04-2009 10:34:13 17.5 C 8.2 g/m*3 17.5 C 0 km/h
174 26-04-2009 10:46:12 17.1 C 8.01 g/m*3 17.1 C 0 km/h
175 26-04-2009 10:58:12 17.7 C 8.3 g/m*3 17.7 C 0 km/h
Sensor: Nr:Datum:Temp:Abs-Feuchte:Windchill:Wind:
Aussen-T/F 176 26-04-2009 11:10:12 17.8 C 8.2 g/m*3 17.8 C 0 km/h
177 26-04-2009 11:22:12 18.4 C 8.18 g/m*3 18.4 C 0 km/h
178 26-04-2009 11:34:12 19.1 C 7.54 g/m*3 19.1 C 0 km/h
179 26-04-2009 11:46:11 20.1 C 7.47 g/m*3 20.1 C 0 km/h
180 26-04-2009 11:58:11 20.4 C 7.08 g/m*3 20.4 C 0 km/h
181 26-04-2009 12:10:12 20.5 C 6.94 g/m*3 20.5 C 0 km/h
182 26-04-2009 12:22:11 21.1 C 6.82 g/m*3 21.1 C 0 km/h
183 26-04-2009 12:34:11 21.8 C 6.72 g/m*3 21.8 C 0 km/h
184 26-04-2009 12:46:11 22.3 C 6.52 g/m*3 22.3 C 0 km/h
185 26-04-2009 12:58:11 22 C 6.21 g/m*3 22 C 0 km/h
186 26-04-2009 13:10:11 22.6 C 6.63 g/m*3 22.6 C 0 km/h
187 26-04-2009 13:22:11 23.5 C 6.34 g/m*3 23.5 C 0 km/h
188 26-04-2009 13:34:10 24.3 C 6.2 g/m*3 24.3 C 0 km/h
189 26-04-2009 13:46:11 24.1 C 5.91 g/m*3 24.1 C 0 km/h
190 26-04-2009 13:58:11 24.3 C 6.2 g/m*3 24.3 C 0 km/h
191 26-04-2009 14:10:10 22.8 C 5.49 g/m*3 22.8 C 0 km/h
192 26-04-2009 14:22:10 23.9 C 5.62 g/m*3 23.9 C 0 km/h
193 26-04-2009 14:34:10 24.6 C 5.85 g/m*3 24.6 C 0 km/h
194 26-04-2009 14:46:10 25.4 C 5.89 g/m*3 25.4 C 0 km/h
195 26-04-2009 14:58:11 25.5 C 5.68 g/m*3 25.5 C 0 km/h
196 26-04-2009 15:10:09 25.1 C 5.56 g/m*3 25.1 C 0 km/h
197 26-04-2009 15:22:10 25.2 C 5.82 g/m*3 25.2 C 0 km/h
198 26-04-2009 15:34:10 25.7 C 5.51 g/m*3 25.7 C 0 km/h
199 26-04-2009 15:46:09 24.7 C 5.66 g/m*3 24.7 C 0 km/h
200 26-04-2009 15:58:09 24 C 5.66 g/m*3 24 C 0 km/h
Sensor: Nr:Datum:Temp:Abs-Feuchte:Windchill:Wind:
Aussen-T/F 201 26-04-2009 16:10:10 23.5 C 5.71 g/m*3 23.5 C 0 km/h
202 26-04-2009 16:22:09 26 C 5.6 g/m*3 26 C 0 km/h
203 26-04-2009 16:34:09 27.5 C 5.29 g/m*3 27.5 C 0 km/h
204 26-04-2009 16:46:08 26.5 C 5.01 g/m*3 26.5 C 0 km/h
205 26-04-2009 16:58:08 27.7 C 5.35 g/m*3 27.7 C 0 km/h
206 26-04-2009 17:10:09 26.8 C 5.09 g/m*3 26.8 C 0 km/h
207 26-04-2009 17:22:08 28 C 5.44 g/m*3 28 C 0 km/h
208 26-04-2009 17:34:08 28.2 C 5.5 g/m*3 28.2 C 0 km/h
209 26-04-2009 17:46:08 29.5 C 5.9 g/m*3 29.5 C 0 km/h
210 26-04-2009 17:58:08 28.5 C 5.59 g/m*3 28.5 C 0 km/h
211 26-04-2009 18:10:08 26.7 C 5.06 g/m*3 26.7 C 0 km/h
212 26-04-2009 18:22:08 27.1 C 5.18 g/m*3 27.1 C 0 km/h
213 26-04-2009 18:34:07 26.4 C 4.98 g/m*3 26.4 C 0 km/h
214 26-04-2009 18:46:08 25.1 C 5.79 g/m*3 25.1 C 0 km/h
215 26-04-2009 18:58:08 24.1 C 5.69 g/m*3 24.1 C 0 km/h
216 26-04-2009 19:10:07 23.6 C 6.17 g/m*3 23.6 C 0 km/h
217 26-04-2009 19:22:07 22.7 C 6.26 g/m*3 22.7 C 0 km/h
218 26-04-2009 19:34:07 22.2 C 6.28 g/m*3 22.2 C 0 km/h
219 26-04-2009 19:46:07 21.8 C 6.52 g/m*3 21.8 C 0 km/h
220 26-04-2009 19:58:07 21.3 C 6.52 g/m*3 21.3 C 0 km/h
221 26-04-2009 20:10:06 21.1 C 6.63 g/m*3 21.1 C 0 km/h
222 26-04-2009 20:22:07 20.7 C 6.84 g/m*3 20.7 C 0 km/h
223 26-04-2009 20:34:07 20.2 C 6.82 g/m*3 20.2 C 0 km/h
224 26-04-2009 20:46:06 20.1 C 7.13 g/m*3 20.1 C 0 km/h
225 26-04-2009 20:58:06 19.6 C 7.09 g/m*3 19.6 C 0 km/h
Sensor: Nr:Datum:Temp:Abs-Feuchte:Windchill:Wind:
Aussen-T/F 226 26-04-2009 21:10:06 19.5 C 7.05 g/m*3 19.5 C 0 km/h
227 26-04-2009 21:22:06 19.3 C 7.13 g/m*3 19.3 C 0 km/h
228 26-04-2009 21:34:06 19.2 C 7.42 g/m*3 19.2 C 0 km/h
229 26-04-2009 21:46:06 18.8 C 7.73 g/m*3 18.8 C 0 km/h
230 26-04-2009 21:58:07 17.7 C 8.6 g/m*3 17.7 C 0 km/h
231 26-04-2009 22:10:05 16.6 C 9.46 g/m*3 16.6 C 0 km/h
232 26-04-2009 22:22:06 16.3 C 10.13 g/m*3 16.3 C 0 km/h
233 26-04-2009 22:34:06 15.9 C 9.62 g/m*3 15.9 C 0 km/h
234 26-04-2009 22:47:05 15.6 C 9.97 g/m*3 15.6 C 0 km/h
235 26-04-2009 22:59:05 15.4 C 10.25 g/m*3 15.4 C 0 km/h
236 26-04-2009 23:11:05 15.4 C 10.25 g/m*3 15.4 C 0 km/h
237 26-04-2009 23:23:05 15.6 C 10.24 g/m*3 15.6 C 0 km/h
238 26-04-2009 23:35:05 15.8 C 9.83 g/m*3 15.8 C 0 km/h
239 26-04-2009 23:47:06 16 C 9.67 g/m*3 16 C 0 km/h
240 26-04-2009 23:59:06 15.9 C 9.75 g/m*3 15.9 C 0 km/h
241 27-04-2009 00:11:06 16 C 9.67 g/m*3 16 C 0 km/h
242 27-04-2009 00:23:06 15.8 C 9.69 g/m*3 15.8 C 0 km/h
243 27-04-2009 00:35:06 15.7 C 9.63 g/m*3 15.7 C 0 km/h
244 27-04-2009 00:47:06 15.7 C 9.63 g/m*3 15.7 C 0 km/h
245 27-04-2009 00:59:06 15.7 C 9.63 g/m*3 15.7 C 0 km/h
246 27-04-2009 01:11:06 15.5 C 9.52 g/m*3 15.5 C 0 km/h
247 27-04-2009 01:23:06 15.3 C 9.53 g/m*3 15.3 C 0 km/h
248 27-04-2009 01:35:06 15 C 9.36 g/m*3 15 C 0 km/h
249 27-04-2009 01:47:06 14.9 C 9.43 g/m*3 14.9 C 0 km/h
250 27-04-2009 01:59:06 14.7 C 9.32 g/m*3 14.7 C 0 km/h
Sensor: Nr:Datum:Temp:Abs-Feuchte:Windchill:Wind:
Aussen-T/F 251 27-04-2009 02:11:06 14.5 C 9.08 g/m*3 14.5 C 0 km/h
252 27-04-2009 02:23:06 14.2 C 9.04 g/m*3 14.2 C 0 km/h
253 27-04-2009 02:35:06 14 C 8.93 g/m*3 14 C 0 km/h
254 27-04-2009 02:47:06 14.1 C 8.86 g/m*3 14.1 C 0 km/h
255 27-04-2009 02:59:06 14.1 C 8.74 g/m*3 14.1 C 0 km/h
256 27-04-2009 03:11:06 14.1 C 8.62 g/m*3 14.1 C 0 km/h
257 27-04-2009 03:23:06 14.1 C 8.5 g/m*3 14.1 C 0 km/h
258 27-04-2009 03:35:06 14.1 C 8.5 g/m*3 14.1 C 0 km/h
259 27-04-2009 03:47:07 14 C 8.32 g/m*3 14 C 0 km/h
260 27-04-2009 03:59:07 13.8 C 8.34 g/m*3 13.8 C 0 km/h
261 27-04-2009 04:11:07 14 C 8.32 g/m*3 14 C 0 km/h
262 27-04-2009 04:23:07 12.8 C 8.62 g/m*3 12.8 C 0 km/h
263 27-04-2009 04:35:07 12.6 C 9.18 g/m*3 12.6 C 0 km/h
264 27-04-2009 04:47:07 12.1 C 9.01 g/m*3 12.1 C 0 km/h
265 27-04-2009 04:59:07 11.5 C 8.99 g/m*3 11.5 C 0 km/h
266 27-04-2009 05:11:07 11.5 C 8.99 g/m*3 11.5 C 0 km/h
267 27-04-2009 05:23:07 11.8 C 9.26 g/m*3 11.8 C 0 km/h
268 27-04-2009 05:35:07 11.9 C 9.32 g/m*3 11.9 C 0 km/h
269 27-04-2009 05:47:07 11.8 C 9.16 g/m*3 11.8 C 0 km/h
270 27-04-2009 05:59:07 11.5 C 8.88 g/m*3 11.5 C 0 km/h
271 27-04-2009 06:11:07 11.3 C 8.77 g/m*3 11.3 C 0 km/h
272 27-04-2009 06:23:07 11.5 C 8.88 g/m*3 11.5 C 0 km/h
273 27-04-2009 06:35:07 11.7 C 8.99 g/m*3 11.7 C 0 km/h
274 27-04-2009 06:47:07 12 C 9.06 g/m*3 12 C 0 km/h
275 27-04-2009 06:59:07 12.1 C 9.01 g/m*3 12.1 C 0 km/h
Sensor: Nr:Datum:Temp:Abs-Feuchte:Windchill:Wind:
Aussen-T/F 276 27-04-2009 07:11:05 12.1 C 8.79 g/m*3 12.1 C 0 km/h
277 27-04-2009 07:23:05 12.2 C 8.74 g/m*3 12.2 C 0 km/h
278 27-04-2009 07:35:05 12.4 C 8.85 g/m*3 12.4 C 0 km/h
279 27-04-2009 07:47:04 12.7 C 8.68 g/m*3 12.7 C 0 km/h
280 27-04-2009 07:59:04 12.7 C 8.68 g/m*3 12.7 C 0 km/h
281 27-04-2009 08:11:05 13 C 8.51 g/m*3 13 C 0 km/h
282 27-04-2009 08:23:04 13.1 C 8.1 g/m*3 13.1 C 0 km/h
283 27-04-2009 08:35:04 13.4 C 8.14 g/m*3 13.4 C 0 km/h
284 27-04-2009 08:47:04 13.6 C 8.12 g/m*3 13.6 C 0 km/h
285 27-04-2009 08:59:04 13.5 C 7.84 g/m*3 13.5 C 0 km/h
286 27-04-2009 09:11:04 13.2 C 7.46 g/m*3 13.2 C 0 km/h
287 27-04-2009 09:23:04 13.1 C 7.53 g/m*3 13.1 C 0 km/h
288 27-04-2009 09:35:04 13.2 C 7.46 g/m*3 13.2 C 0 km/h
289 27-04-2009 09:47:03 13.4 C 7.44 g/m*3 13.4 C 0 km/h
290 27-04-2009 09:59:03 14 C 7.24 g/m*3 14 C 0 km/h
291 27-04-2009 10:11:04 14.5 C 7.09 g/m*3 14.5 C 0 km/h
292 27-04-2009 10:23:03 14.7 C 6.92 g/m*3 14.7 C 0 km/h
293 27-04-2009 10:35:03 14.4 C 6.55 g/m*3 14.4 C 0 km/h
294 27-04-2009 10:47:03 14.6 C 6.63 g/m*3 14.6 C 0 km/h
295 27-04-2009 10:59:03 14.8 C 6.46 g/m*3 14.8 C 0 km/h
296 27-04-2009 11:11:03 14.8 C 6.33 g/m*3 14.8 C 0 km/h
297 27-04-2009 11:23:02 14.9 C 6.12 g/m*3 14.9 C 0 km/h
298 27-04-2009 11:35:03 15.5 C 6.08 g/m*3 15.5 C 0 km/h
299 27-04-2009 11:47:02 14.9 C 6.12 g/m*3 14.9 C 0 km/h
300 27-04-2009 11:59:02 15.5 C 5.95 g/m*3 15.5 C 0 km/h
Sensor: Nr:Datum:Temp:Abs-Feuchte:Windchill:Wind:
Aussen-T/F 301 27-04-2009 12:11:02 15.6 C 5.72 g/m*3 15.6 C 0 km/h
302 27-04-2009 12:23:01 15.3 C 5.75 g/m*3 15.3 C 0 km/h
303 27-04-2009 12:35:02 15.4 C 5.91 g/m*3 15.4 C 0 km/h
304 27-04-2009 12:47:02 15.5 C 5.95 g/m*3 15.5 C 0 km/h
305 27-04-2009 12:59:02 15.6 C 5.98 g/m*3 15.6 C 0 km/h
306 27-04-2009 13:11:01 15.4 C 5.78 g/m*3 15.4 C 0 km/h
307 27-04-2009 13:23:02 15.4 C 5.91 g/m*3 15.4 C 0 km/h
308 27-04-2009 13:35:01 15.7 C 6.15 g/m*3 15.7 C 0 km/h
309 27-04-2009 13:47:01 16.6 C 5.93 g/m*3 16.6 C 0 km/h
310 27-04-2009 13:59:01 16.2 C 5.79 g/m*3 16.2 C 0 km/h
311 27-04-2009 14:11:01 17 C 5.93 g/m*3 17 C 0 km/h
312 27-04-2009 14:23:01 16.6 C 5.65 g/m*3 16.6 C 0 km/h
313 27-04-2009 14:35:01 16.4 C 5.58 g/m*3 16.4 C 0 km/h
314 27-04-2009 14:47:01 16.6 C 5.51 g/m*3 16.6 C 0 km/h
315 27-04-2009 14:59:01 16.6 C 5.37 g/m*3 16.6 C 0 km/h
316 27-04-2009 15:11:01 16.6 C 5.37 g/m*3 16.6 C 0 km/h
317 27-04-2009 15:23:00 16.6 C 5.65 g/m*3 16.6 C 0 km/h
318 27-04-2009 15:35:00 17 C 5.5 g/m*3 17 C 0 km/h
319 27-04-2009 15:47:00 17.1 C 5.24 g/m*3 17.1 C 0 km/h
320 27-04-2009 15:59:00 17.2 C 5.27 g/m*3 17.2 C 0 km/h
321 27-04-2009 16:11:00 18.5 C 5.38 g/m*3 18.5 C 0 km/h
322 27-04-2009 16:23:59 18 C 5.38 g/m*3 18 C 0 km/h
323 27-04-2009 16:35:00 17.4 C 5.19 g/m*3 17.4 C 0 km/h
324 27-04-2009 16:47:59 17.2 C 5.13 g/m*3 17.2 C 0 km/h
325 27-04-2009 16:59:59 17.6 C 5.25 g/m*3 17.6 C 0 km/h
Sensor: Nr:Datum:Temp:Abs-Feuchte:Windchill:Wind:
Aussen-T/F 326 27-04-2009 17:11:59 18 C 5.22 g/m*3 18 C 0 km/h
327 27-04-2009 17:23:59 19.3 C 4.98 g/m*3 19.3 C 0 km/h
328 27-04-2009 17:35:02 19.2 C 4.78 g/m*3 19.2 C 0 km/h
329 27-04-2009 17:47:01 19.3 C 4.98 g/m*3 19.3 C 0 km/h
330 27-04-2009 17:59:01 19.3 C 4.64 g/m*3 19.3 C 0 km/h
331 27-04-2009 18:11:01 19.8 C 5.12 g/m*3 19.8 C 0 km/h
332 27-04-2009 18:23:01 19.6 C 4.9 g/m*3 19.6 C 0 km/h
333 27-04-2009 18:35:01 18.4 C 5.03 g/m*3 18.4 C 0 km/h
334 27-04-2009 18:47:01 18.1 C 5.1 g/m*3 18.1 C 0 km/h
335 27-04-2009 18:59:01 18 C 4.92 g/m*3 18 C 0 km/h
336 27-04-2009 19:11:01 17.8 C 5.16 g/m*3 17.8 C 0 km/h
337 27-04-2009 19:23:00 18 C 5.07 g/m*3 18 C 0 km/h
338 27-04-2009 19:35:01 17.2 C 5.13 g/m*3 17.2 C 0 km/h
339 27-04-2009 19:47:00 16.9 C 5.32 g/m*3 16.9 C 0 km/h
340 27-04-2009 19:59:00 16.7 C 5.54 g/m*3 16.7 C 0 km/h
341 27-04-2009 20:11:00 16.2 C 5.52 g/m*3 16.2 C 0 km/h
342 27-04-2009 20:22:59 15.8 C 5.92 g/m*3 15.8 C 0 km/h
343 27-04-2009 20:35:00 15.4 C 5.91 g/m*3 15.4 C 0 km/h
344 27-04-2009 20:47:59 14.9 C 5.86 g/m*3 14.9 C 0 km/h
345 27-04-2009 20:59:59 14.3 C 5.9 g/m*3 14.3 C 0 km/h
346 27-04-2009 21:11:59 14.2 C 6.11 g/m*3 14.2 C 0 km/h
347 27-04-2009 21:23:00 14.3 C 6.14 g/m*3 14.3 C 0 km/h
348 27-04-2009 21:35:59 14.3 C 6.14 g/m*3 14.3 C 0 km/h
349 27-04-2009 21:48:01 14.1 C 6.07 g/m*3 14.1 C 0 km/h
350 27-04-2009 22:00:01 14.1 C 6.07 g/m*3 14.1 C 0 km/h
Sensor: Nr:Datum:Temp:Abs-Feuchte:Windchill:Wind:
Aussen-T/F 351 27-04-2009 22:12:01 14.1 C 6.19 g/m*3 14.1 C 0 km/h
352 27-04-2009 22:24:01 14.1 C 6.19 g/m*3 14.1 C 0 km/h
353 27-04-2009 22:36:01 13.2 C 6.89 g/m*3 13.2 C 0 km/h
354 27-04-2009 22:48:01 12.6 C 7.19 g/m*3 12.6 C 0 km/h
355 27-04-2009 23:00:01 12.5 C 7.37 g/m*3 12.5 C 0 km/h
356 27-04-2009 23:12:01 12.8 C 7.06 g/m*3 12.8 C 0 km/h
357 27-04-2009 23:24:01 12.9 C 6.99 g/m*3 12.9 C 0 km/h
358 27-04-2009 23:36:01 12.4 C 6.99 g/m*3 12.4 C 0 km/h
359 27-04-2009 23:48:01 12 C 7.25 g/m*3 12 C 0 km/h

Legende:
   Min
   Max


Maximal/Minimal-Werte vom 25.04.2009 - 27.04.2009

Sensor Min Max Avg
Temp
(Aussen-T/F)
6.3 °C
25-04-2009  06:57:25
29.5 °C
26-04-2009  17:46:08
15.97 °C
Abs-Feuchte
(Aussen-T/F)
4.64 g/m*3
27-04-2009  17:59:01
10.25 g/m*3
26-04-2009  22:59:05
7.06 g/m*3
Windchill
(Aussen-T/F)
6.3 C
25-04-2009  06:57:25
29.5 C
26-04-2009  17:46:08
15.92 C

Die Daten stammen von einer Davis Vantage Pro 2 Wetter-Station und werden unter Linux mit der Software wview2wettercgi und aufbereitet. Alle Angaben erfolgen ohne Gewähr für ihre Vollständigkeit oder Richtigkeit.
Kontakt: Rainer Krienke krienke@uni-koblenz.de . Meine Webseiten an der Uni Koblenz oder privat.
Version: $Revision: 0.78 $